createdAt,value
2018-04-01T00:01:07.391Z,13.00
2018-04-01T00:03:34.357Z,14.90
2018-04-01T00:06:01.317Z,14.93
2018-04-01T00:08:28.272Z,15.47
2018-04-01T00:10:55.235Z,13.43
2018-04-01T00:13:22.196Z,13.50
2018-04-01T00:15:49.924Z,14.93
2018-04-01T00:18:16.883Z,14.53
2018-04-01T00:20:43.848Z,14.43
2018-04-01T00:23:11.576Z,15.17
2018-04-01T00:25:38.536Z,15.50
2018-04-01T00:28:05.492Z,15.30
2018-04-01T00:30:33.228Z,15.83
2018-04-01T00:33:00.190Z,15.20
2018-04-01T00:35:27.153Z,15.47
2018-04-01T00:37:54.888Z,15.73
2018-04-01T00:40:21.852Z,15.73
2018-04-01T00:42:49.590Z,14.80
2018-04-01T00:45:16.560Z,16.90
2018-04-01T00:47:44.317Z,15.93
2018-04-01T00:50:11.264Z,16.33
2018-04-01T00:52:38.222Z,14.63
2018-04-01T00:55:05.945Z,15.57
2018-04-01T00:57:32.908Z,15.70
2018-04-01T01:00:00.105Z,15.13
2018-04-01T01:02:27.060Z,15.50
2018-04-01T01:04:54.024Z,15.80
2018-04-01T01:07:20.984Z,14.77
2018-04-01T01:09:47.939Z,15.00
2018-04-01T01:12:14.911Z,14.00
2018-04-01T01:14:42.635Z,15.07
2018-04-01T01:17:09.601Z,14.60
2018-04-01T01:19:37.336Z,15.67
2018-04-01T01:22:04.300Z,14.97
2018-04-01T01:24:31.270Z,14.63
2018-04-01T01:26:58.998Z,14.60
2018-04-01T01:29:25.955Z,15.80
2018-04-01T01:31:52.924Z,16.50
2018-04-01T01:34:19.897Z,16.93
2018-04-01T01:36:46.863Z,16.37
2018-04-01T01:39:13.826Z,16.37
2018-04-01T01:41:40.785Z,16.27
2018-04-01T01:44:08.513Z,16.47
2018-04-01T01:46:35.471Z,15.23
2018-04-01T01:49:02.428Z,17.70
2018-04-01T01:51:29.384Z,15.60
2018-04-01T01:53:57.103Z,15.90
2018-04-01T01:56:24.068Z,15.20
2018-04-01T01:58:51.071Z,16.23
2018-04-01T02:01:18.041Z,15.83
2018-04-01T02:03:44.995Z,16.20
2018-04-01T02:06:11.960Z,15.50
2018-04-01T02:08:38.918Z,14.97
2018-04-01T02:11:06.644Z,15.00
2018-04-01T02:13:33.608Z,15.27
2018-04-01T02:16:00.564Z,16.00
2018-04-01T02:18:28.289Z,15.57
2018-04-01T02:20:56.028Z,16.37
2018-04-01T02:23:22.988Z,17.80
2018-04-01T02:25:49.945Z,17.20
2018-04-01T02:28:16.903Z,16.70
2018-04-01T02:30:43.865Z,17.33
2018-04-01T02:33:10.837Z,17.13
2018-04-01T02:35:37.805Z,17.53
2018-04-01T02:38:04.765Z,16.80
2018-04-01T02:40:31.737Z,16.70
2018-04-01T02:42:58.698Z,16.70
2018-04-01T02:45:26.497Z,14.27
2018-04-01T02:47:53.458Z,15.90
2018-04-01T02:50:20.427Z,16.20
2018-04-01T02:52:47.392Z,16.97
2018-04-01T02:55:15.129Z,16.97
2018-04-01T02:57:42.094Z,16.60
2018-04-01T03:00:09.067Z,14.67
2018-04-01T03:02:36.792Z,15.50
2018-04-01T03:05:03.753Z,15.77
2018-04-01T03:07:30.718Z,16.03
2018-04-01T03:09:58.457Z,16.97
2018-04-01T03:12:25.411Z,15.83
2018-04-01T03:14:53.135Z,16.57
2018-04-01T03:17:20.096Z,15.77
2018-04-01T03:19:47.062Z,15.87
2018-04-01T03:22:14.790Z,15.57
2018-04-01T03:24:41.745Z,16.63
2018-04-01T03:27:08.717Z,16.73
2018-04-01T03:29:36.449Z,16.17
2018-04-01T03:32:03.412Z,15.40
2018-04-01T03:34:30.376Z,14.70
2018-04-01T03:36:58.110Z,16.10
2018-04-01T03:39:25.080Z,15.87
2018-04-01T03:41:52.801Z,15.03
2018-04-01T03:44:19.761Z,14.60
2018-04-01T03:46:46.725Z,15.00
2018-04-01T03:49:14.575Z,15.40
2018-04-01T03:51:41.539Z,16.00
2018-04-01T03:54:09.268Z,15.13
2018-04-01T03:56:36.223Z,16.00
2018-04-01T03:59:03.193Z,16.30
2018-04-01T04:01:30.916Z,17.10
2018-04-01T04:03:58.652Z,15.17
2018-04-01T04:06:25.614Z,15.70
2018-04-01T04:08:52.579Z,14.30
2018-04-01T04:11:19.583Z,16.37
2018-04-01T04:13:46.545Z,15.33
2018-04-01T04:16:13.513Z,14.27
2018-04-01T04:18:40.468Z,14.27
2018-04-01T04:21:07.435Z,14.13
2018-04-01T04:23:35.169Z,13.93
2018-04-01T04:26:02.136Z,14.50
2018-04-01T04:28:29.865Z,14.30
2018-04-01T04:30:56.863Z,13.70
2018-04-01T04:33:23.853Z,14.47
2018-04-01T04:35:50.846Z,14.97
2018-04-01T04:38:18.565Z,14.70
2018-04-01T04:40:45.528Z,14.13
2018-04-01T04:43:12.495Z,15.03
2018-04-01T04:45:40.216Z,14.90
2018-04-01T04:48:07.183Z,14.80
2018-04-01T04:50:34.159Z,14.63
2018-04-01T04:53:01.880Z,14.93
2018-04-01T04:55:28.840Z,15.17
2018-04-01T04:57:55.799Z,15.50
2018-04-01T05:00:23.524Z,14.87
2018-04-01T05:02:50.489Z,14.97
2018-04-01T05:05:17.448Z,15.80
2018-04-01T05:07:45.172Z,14.37
2018-04-01T05:10:12.139Z,14.27
2018-04-01T05:12:39.096Z,16.20
2018-04-01T05:15:06.837Z,15.40
2018-04-01T05:17:33.838Z,16.53
2018-04-01T05:20:01.528Z,14.83
2018-04-01T05:22:28.520Z,15.77
2018-04-01T05:24:56.245Z,15.37
2018-04-01T05:27:23.209Z,13.53
2018-04-01T05:29:50.168Z,12.07
2018-04-01T05:32:17.894Z,12.37
2018-04-01T05:34:44.857Z,12.17
2018-04-01T05:37:11.817Z,10.50
2018-04-01T05:39:39.546Z,10.40
2018-04-01T05:42:06.509Z,10.17
2018-04-01T05:44:33.472Z,9.73
2018-04-01T05:47:01.192Z,9.17
2018-04-01T05:49:28.996Z,8.30
2018-04-01T05:51:56.728Z,8.47
2018-04-01T05:54:23.700Z,8.37
2018-04-01T05:56:50.659Z,8.60
2018-04-01T05:59:18.396Z,7.50
2018-04-01T06:01:45.361Z,6.87
2018-04-01T06:04:13.079Z,7.53
2018-04-01T06:06:40.048Z,8.00
2018-04-01T06:09:07.004Z,7.07
2018-04-01T06:11:33.965Z,7.87
2018-04-01T06:14:01.693Z,6.80
2018-04-01T06:16:28.659Z,6.60
2018-04-01T06:18:56.495Z,5.53
2018-04-01T06:21:23.437Z,5.63
2018-04-01T06:23:50.404Z,5.37
2018-04-01T06:26:17.356Z,4.83
2018-04-01T06:28:45.088Z,4.57
2018-04-01T06:31:12.057Z,4.00
2018-04-01T06:33:39.793Z,4.43
2018-04-01T06:36:06.763Z,4.10
2018-04-01T06:38:33.719Z,4.50
2018-04-01T06:41:01.460Z,4.43
2018-04-01T06:43:28.417Z,4.27
2018-04-01T06:45:55.384Z,4.50
2018-04-01T06:48:23.104Z,4.47
2018-04-01T06:50:50.080Z,4.60
2018-04-01T06:53:17.810Z,5.17
2018-04-01T06:55:44.786Z,4.70
2018-04-01T06:58:11.749Z,5.53
2018-04-01T07:00:38.720Z,5.87
2018-04-01T07:03:05.683Z,5.30
2018-04-01T07:05:32.644Z,5.83
2018-04-01T07:07:59.604Z,6.20
2018-04-01T07:10:26.723Z,6.47
2018-04-01T07:12:53.699Z,7.13
2018-04-01T07:15:20.674Z,6.73
2018-04-01T07:17:47.667Z,7.00
2018-04-01T07:20:14.608Z,6.17
2018-04-01T07:22:41.605Z,6.97
2018-04-01T07:25:08.528Z,5.97
2018-04-01T07:27:36.252Z,6.83
2018-04-01T07:30:03.220Z,6.33
2018-04-01T07:32:30.171Z,6.07
2018-04-01T07:34:57.188Z,6.20
2018-04-01T07:37:24.925Z,5.63
2018-04-01T07:39:51.885Z,5.10
2018-04-01T07:42:18.899Z,5.13
2018-04-01T07:44:45.813Z,4.93
2018-04-01T07:47:13.044Z,5.10
2018-04-01T07:49:40.785Z,5.03
2018-04-01T07:52:07.739Z,4.97
2018-04-01T07:54:34.887Z,5.60
2018-04-01T07:57:01.906Z,6.03
2018-04-01T07:59:29.732Z,5.40
2018-04-01T08:01:56.694Z,6.13
2018-04-01T08:04:24.435Z,6.10
2018-04-01T08:06:52.252Z,5.93
2018-04-01T08:09:19.236Z,5.53
2018-04-01T08:11:46.196Z,6.47
2018-04-01T08:14:13.227Z,6.43
2018-04-01T08:16:41.414Z,6.10
2018-04-01T08:19:08.468Z,7.03
2018-04-01T08:21:35.424Z,6.53
2018-04-01T08:24:03.364Z,6.93
2018-04-01T08:26:31.140Z,6.87
2018-04-01T08:28:58.102Z,6.50
2018-04-01T08:31:25.824Z,6.43
2018-04-01T08:33:52.780Z,6.67
2018-04-01T08:36:19.744Z,6.43
2018-04-01T08:38:47.482Z,5.97
2018-04-01T08:41:14.454Z,5.77
2018-04-01T08:43:42.180Z,5.80
2018-04-01T08:46:09.165Z,6.17
2018-04-01T08:48:37.177Z,6.43
2018-04-01T08:51:04.139Z,6.93
2018-04-01T08:53:31.101Z,7.67
2018-04-01T08:55:58.072Z,7.50
2018-04-01T08:58:26.377Z,7.83
2018-04-01T09:00:53.358Z,7.80
2018-04-01T09:03:20.336Z,8.07
2018-04-01T09:05:48.148Z,7.07
2018-04-01T09:08:15.114Z,7.33
2018-04-01T09:10:42.288Z,6.90
2018-04-01T09:13:09.248Z,6.40
2018-04-01T09:15:36.972Z,6.53
2018-04-01T09:18:03.968Z,6.70
2018-04-01T09:20:31.076Z,7.17
2018-04-01T09:22:58.189Z,7.50
2018-04-01T09:25:25.195Z,6.93
2018-04-01T09:27:52.417Z,6.83
2018-04-01T09:30:20.160Z,6.83
2018-04-01T09:32:47.147Z,6.53
2018-04-01T09:35:14.877Z,6.93
2018-04-01T09:37:42.619Z,7.57
2018-04-01T09:40:09.580Z,7.30
2018-04-01T09:42:36.560Z,8.97
2018-04-01T09:45:03.665Z,7.77
2018-04-01T09:47:30.648Z,8.80
2018-04-01T09:49:57.716Z,8.67
2018-04-01T09:52:24.661Z,9.77
2018-04-01T09:54:52.380Z,9.23
2018-04-01T09:57:19.345Z,8.43
2018-04-01T09:59:46.313Z,5.53
2018-04-01T10:02:14.524Z,6.27
2018-04-01T10:04:41.978Z,6.30
2018-04-01T10:07:09.453Z,4.80
2018-04-01T10:09:36.920Z,6.63
2018-04-01T10:12:04.369Z,6.43
2018-04-01T10:14:31.827Z,6.30
2018-04-01T10:16:59.279Z,7.00
2018-04-01T10:19:26.732Z,7.37
2018-04-01T10:21:54.184Z,7.63
2018-04-01T10:24:21.623Z,7.60
2018-04-01T10:26:49.079Z,9.70
2018-04-01T10:29:16.553Z,9.20
2018-04-01T10:31:44.010Z,9.60
2018-04-01T10:34:12.235Z,11.30
2018-04-01T10:36:40.470Z,11.90
2018-04-01T10:39:07.920Z,12.20
2018-04-01T10:41:35.372Z,13.43
2018-04-01T10:44:02.832Z,13.23
2018-04-01T10:46:30.287Z,12.07
2018-04-01T10:48:57.740Z,12.33
2018-04-01T10:51:25.202Z,11.77
2018-04-01T10:53:56.955Z,10.67
2018-04-01T10:56:23.916Z,10.23
2018-04-01T10:58:50.881Z,9.93
2018-04-01T11:01:18.608Z,8.97
2018-04-01T11:03:45.568Z,9.60
2018-04-01T11:06:12.538Z,9.23
2018-04-01T11:08:40.264Z,8.60
2018-04-01T11:11:07.224Z,7.70
2018-04-01T11:13:34.179Z,6.17
2018-04-01T11:16:01.152Z,6.30
2018-04-01T11:18:28.117Z,6.17
2018-04-01T11:20:55.074Z,5.93
2018-04-01T11:23:22.029Z,6.60
2018-04-01T11:25:48.985Z,6.97
2018-04-01T11:28:15.940Z,6.03
2018-04-01T11:33:00.256Z,5.57
2018-04-01T11:35:27.208Z,5.53
2018-04-01T11:37:54.333Z,5.20
2018-04-01T11:40:21.296Z,5.60
2018-04-01T11:42:48.247Z,5.60
2018-04-01T11:45:15.208Z,6.30
2018-04-01T11:47:42.180Z,6.00
2018-04-01T11:50:09.133Z,6.70
2018-04-01T11:52:36.107Z,7.07
2018-04-01T11:55:03.065Z,7.00
2018-04-01T11:57:30.013Z,6.40
2018-04-01T11:59:56.964Z,5.57
2018-04-01T12:02:23.911Z,4.73
2018-04-01T12:04:50.869Z,3.93
2018-04-01T12:07:18.157Z,3.60
2018-04-01T12:09:45.107Z,3.93
2018-04-01T12:12:12.845Z,4.80
2018-04-01T12:14:39.800Z,5.23
2018-04-01T12:17:06.760Z,6.07
2018-04-01T12:19:34.479Z,6.73
2018-04-01T12:22:01.433Z,7.13
2018-04-01T12:24:28.409Z,7.20
2018-04-01T12:26:56.150Z,6.10
2018-04-01T12:29:23.097Z,6.83
2018-04-01T12:31:50.052Z,5.87
2018-04-01T12:34:17.465Z,6.17
2018-04-01T12:36:44.427Z,5.43
2018-04-01T12:39:11.375Z,4.80
2018-04-01T12:41:38.450Z,5.87
2018-04-01T12:44:06.180Z,5.50
2018-04-01T12:46:33.141Z,5.37
2018-04-01T12:49:00.089Z,6.03
2018-04-01T12:51:28.557Z,5.13
2018-04-01T12:53:55.521Z,5.53
2018-04-01T12:56:23.237Z,5.80
2018-04-01T12:58:50.313Z,6.30
2018-04-01T13:01:17.365Z,5.87
2018-04-01T13:03:44.405Z,5.60
2018-04-01T13:06:11.457Z,5.83
2018-04-01T13:08:38.499Z,6.20
2018-04-01T13:11:05.476Z,6.07
2018-04-01T13:13:33.192Z,5.43
2018-04-01T13:16:00.208Z,5.97
2018-04-01T13:18:27.160Z,5.10
2018-04-01T13:20:54.142Z,5.67
2018-04-01T13:23:21.180Z,1.77
2018-04-01T13:25:48.131Z,2.27
2018-04-01T13:28:15.076Z,1.93
2018-04-01T13:30:42.114Z,1.57
2018-04-01T13:33:09.556Z,0.90
2018-04-01T13:35:36.631Z,0.90
2018-04-01T13:38:03.584Z,1.10
2018-04-01T13:40:30.556Z,1.00
2018-04-01T13:42:58.291Z,1.03
2018-04-01T13:45:25.244Z,1.27
2018-04-01T13:47:52.210Z,0.93
2018-04-01T13:50:19.935Z,1.53
2018-04-01T13:52:46.885Z,1.60
2018-04-01T13:55:13.832Z,1.30
2018-04-01T13:57:40.793Z,1.40
2018-04-01T14:00:08.512Z,1.80
2018-04-01T14:02:35.657Z,1.90
2018-04-01T14:05:02.633Z,2.10
2018-04-01T14:07:29.695Z,1.93
2018-04-01T14:09:56.681Z,1.77
2018-04-01T14:12:23.636Z,2.50
2018-04-01T14:14:50.585Z,3.27
2018-04-01T14:17:17.536Z,3.03
2018-04-01T14:19:44.480Z,3.50
2018-04-01T14:22:11.446Z,3.20
2018-04-01T14:24:39.180Z,3.67
2018-04-01T14:27:06.128Z,4.50
2018-04-01T14:29:33.089Z,4.40
2018-04-01T14:32:00.036Z,4.40
2018-04-01T14:34:26.994Z,4.57
2018-04-01T14:36:53.987Z,4.50
2018-04-01T14:39:21.685Z,4.57
2018-04-01T14:41:48.640Z,4.00
2018-04-01T14:44:15.597Z,4.17
2018-04-01T14:46:42.549Z,3.73
2018-04-01T14:49:09.508Z,4.80
2018-04-01T14:51:37.236Z,5.17
2018-04-01T14:54:04.181Z,4.40
2018-04-01T14:56:31.132Z,5.07
2018-04-01T14:58:58.080Z,4.57
2018-04-01T15:01:25.035Z,4.73
2018-04-01T15:03:51.982Z,4.50
2018-04-01T15:06:19.710Z,4.57
2018-04-01T15:08:46.671Z,5.03
2018-04-01T15:11:13.627Z,4.33
2018-04-01T15:13:40.611Z,4.43
2018-04-01T15:16:07.572Z,4.60
2018-04-01T15:18:34.519Z,5.30
2018-04-01T15:21:01.472Z,5.40
2018-04-01T15:23:28.415Z,6.07
2018-04-01T15:25:55.384Z,6.07
2018-04-01T15:28:22.335Z,5.00
2018-04-01T15:30:49.280Z,4.80
2018-04-01T15:33:16.411Z,5.47
2018-04-01T15:35:43.364Z,4.03
2018-04-01T15:38:10.361Z,6.27
2018-04-01T15:40:37.312Z,4.00
2018-04-01T15:43:04.265Z,3.97
2018-04-01T15:45:31.220Z,4.30
2018-04-01T15:47:58.170Z,3.80
2018-04-01T15:50:25.129Z,3.47
2018-04-01T15:52:52.082Z,3.80
2018-04-01T15:55:19.056Z,3.10
2018-04-01T15:57:46.762Z,3.87
2018-04-01T16:00:13.712Z,3.90
2018-04-01T16:02:40.688Z,4.00
2018-04-01T16:05:07.642Z,4.20
2018-04-01T16:07:35.357Z,5.13
2018-04-01T16:10:02.316Z,4.47
2018-04-01T16:12:30.037Z,5.27
2018-04-01T16:14:56.997Z,5.00
2018-04-01T16:17:23.953Z,5.60
2018-04-01T16:19:50.932Z,6.10
2018-04-01T16:22:17.921Z,6.00
2018-04-01T16:24:44.876Z,6.57
2018-04-01T16:27:11.836Z,6.40
2018-04-01T16:29:38.797Z,6.50
2018-04-01T16:32:05.755Z,6.63
2018-04-01T16:34:32.708Z,7.03
2018-04-01T16:37:00.433Z,7.80
2018-04-01T16:39:27.385Z,6.20
2018-04-01T16:41:54.356Z,5.80
2018-04-01T16:44:21.307Z,5.93
2018-04-01T16:46:49.031Z,7.77
2018-04-01T16:49:15.983Z,5.80
2018-04-01T16:51:42.932Z,5.37
2018-04-01T16:54:09.884Z,6.00
2018-04-01T16:56:36.881Z,5.60
2018-04-01T16:59:03.829Z,4.40
2018-04-01T17:01:30.782Z,4.80
2018-04-01T17:03:57.752Z,5.33
2018-04-01T17:06:24.704Z,5.13
2018-04-01T17:08:51.656Z,5.50
2018-04-01T17:11:18.611Z,5.73
2018-04-01T17:13:45.560Z,6.43
2018-04-01T17:16:13.280Z,6.27
2018-04-01T17:18:40.229Z,6.20
2018-04-01T17:21:07.179Z,6.37
2018-04-01T17:23:34.140Z,6.03
2018-04-01T17:26:01.101Z,6.17
2018-04-01T17:28:28.827Z,6.60
2018-04-01T17:30:55.786Z,6.37
2018-04-01T17:33:24.438Z,6.97
2018-04-01T17:35:51.470Z,7.27
2018-04-01T17:38:18.428Z,8.17
2018-04-01T17:40:45.390Z,7.97
2018-04-01T17:43:12.360Z,8.23
2018-04-01T17:45:39.324Z,7.37
2018-04-01T17:48:07.056Z,8.63
2018-04-01T17:50:35.273Z,9.40
2018-04-01T17:53:02.266Z,9.03
2018-04-01T17:55:29.226Z,8.73
2018-04-01T17:57:56.185Z,9.87
2018-04-01T18:00:23.152Z,10.20
2018-04-01T18:02:50.877Z,10.73
2018-04-01T18:05:17.828Z,10.33
2018-04-01T18:07:44.792Z,9.57
2018-04-01T18:10:12.529Z,10.07
2018-04-01T18:12:39.495Z,9.33
2018-04-01T18:15:07.228Z,10.75
2018-04-01T18:17:34.213Z,9.87
2018-04-01T18:20:01.940Z,9.93
2018-04-01T18:22:28.911Z,10.83
2018-04-01T18:24:55.868Z,11.23
2018-04-01T18:27:23.604Z,11.63
2018-04-01T18:29:50.565Z,11.47
2018-04-01T18:32:18.294Z,11.00
2018-04-01T18:34:45.253Z,11.17
2018-04-01T18:37:12.215Z,9.30
2018-04-01T18:39:39.960Z,9.07
2018-04-01T18:42:06.925Z,8.93
2018-04-01T18:44:33.885Z,8.33
2018-04-01T18:47:00.866Z,6.30
2018-04-01T18:49:27.858Z,6.57
2018-04-01T18:51:55.602Z,5.77
2018-04-01T18:54:22.555Z,5.10
2018-04-01T18:56:49.516Z,5.90
2018-04-01T18:59:17.316Z,5.43
2018-04-01T19:01:44.287Z,5.80
2018-04-01T19:04:11.250Z,6.50
2018-04-01T19:06:38.270Z,6.20
2018-04-01T19:09:05.220Z,7.30
2018-04-01T19:11:32.185Z,7.43
2018-04-01T19:13:59.147Z,5.77
2018-04-01T19:16:27.405Z,5.80
2018-04-01T19:18:54.840Z,6.10
2018-04-01T19:21:22.298Z,5.80
2018-04-01T19:23:49.750Z,5.87
2018-04-01T19:26:17.215Z,5.87
2018-04-01T19:28:44.696Z,6.60
2018-04-01T19:31:12.148Z,5.90
2018-04-01T19:33:39.620Z,6.30
2018-04-01T19:36:07.839Z,9.43
2018-04-01T19:38:35.287Z,7.27
2018-04-01T19:41:02.765Z,8.07
2018-04-01T19:43:30.224Z,8.63
2018-04-01T19:45:57.690Z,8.30
2018-04-01T19:48:25.151Z,7.53
2018-04-01T19:50:52.608Z,7.60
2018-04-01T19:53:20.088Z,9.17
2018-04-01T19:55:47.533Z,7.67
2018-04-01T19:58:14.985Z,9.07
2018-04-01T20:00:42.457Z,10.47
2018-04-01T20:03:10.690Z,10.23
2018-04-01T20:05:38.159Z,9.47
2018-04-01T20:08:05.601Z,7.73
2018-04-01T20:10:33.077Z,7.97
2018-04-01T20:13:00.538Z,7.10
2018-04-01T20:15:27.984Z,7.53
2018-04-01T20:17:55.440Z,7.37
2018-04-01T20:20:22.962Z,6.93
2018-04-01T20:22:50.397Z,7.10
2018-04-01T20:25:18.613Z,7.40
2018-04-01T20:27:46.072Z,7.00
2018-04-01T20:30:13.533Z,6.80
2018-04-01T20:32:40.989Z,6.77
2018-04-01T20:35:08.436Z,6.77
2018-04-01T20:37:35.895Z,7.87
2018-04-01T20:40:03.359Z,7.80
2018-04-01T20:42:30.808Z,7.20
2018-04-01T20:44:58.258Z,7.10
2018-04-01T20:47:25.722Z,7.17
2018-04-01T20:50:36.666Z,8.17
2018-04-01T20:53:04.140Z,8.60
2018-04-01T20:55:31.600Z,8.80
2018-04-01T20:57:59.055Z,9.30
2018-04-01T21:00:26.517Z,8.50
2018-04-01T21:02:53.964Z,9.13
2018-04-01T21:05:21.432Z,8.73
2018-04-01T21:07:49.234Z,9.53
2018-04-01T21:10:16.706Z,10.80
2018-04-01T21:12:44.933Z,10.30
2018-04-01T21:15:12.467Z,11.77
2018-04-01T21:17:39.920Z,11.57
2018-04-01T21:20:07.381Z,13.00
2018-04-01T21:22:34.836Z,12.40
2018-04-01T21:25:02.293Z,11.20
2018-04-01T21:27:29.767Z,10.93
2018-04-01T21:29:57.255Z,11.73
2018-04-01T21:32:24.706Z,11.63
2018-04-01T21:34:52.161Z,11.63
2018-04-01T21:37:19.608Z,13.33
2018-04-01T21:39:47.064Z,12.50
2018-04-01T21:42:14.523Z,13.93
2018-04-01T21:44:41.976Z,15.03
2018-04-01T21:47:09.443Z,15.03
2018-04-01T21:49:36.903Z,15.90
2018-04-01T21:52:04.369Z,15.30
2018-04-01T21:54:31.836Z,16.40
2018-04-01T21:56:59.304Z,16.00
2018-04-01T21:59:27.511Z,16.43
2018-04-01T22:01:54.967Z,16.03
2018-04-01T22:04:22.437Z,16.27
2018-04-01T22:06:49.898Z,16.43
2018-04-01T22:09:17.345Z,15.63
2018-04-01T22:11:44.818Z,16.90
2018-04-01T22:14:12.273Z,17.37
2018-04-01T22:16:39.724Z,17.63
2018-04-01T22:19:07.188Z,16.90
2018-04-01T22:21:34.647Z,17.07
2018-04-01T22:24:02.870Z,16.47
2018-04-01T22:26:31.098Z,17.17
2018-04-01T22:28:58.554Z,16.07
2018-04-01T22:31:26.017Z,17.27
2018-04-01T22:33:53.464Z,16.80
2018-04-01T22:36:20.925Z,19.17
2018-04-01T22:38:48.393Z,18.90
2018-04-01T22:41:15.851Z,18.03
2018-04-01T22:43:43.341Z,18.50
2018-04-01T22:46:10.796Z,20.30
2018-04-01T22:48:38.252Z,18.70
2018-04-01T22:51:06.465Z,19.57
2018-04-01T22:53:33.923Z,18.37
2018-04-01T22:56:01.364Z,17.97
2018-04-01T22:58:28.825Z,16.73
2018-04-01T23:00:56.355Z,17.17
2018-04-01T23:03:23.723Z,16.47
2018-04-01T23:05:51.176Z,17.13
2018-04-01T23:08:18.629Z,17.17
2018-04-01T23:10:46.094Z,18.43
2018-04-01T23:13:13.553Z,17.70
2018-04-01T23:15:41.001Z,18.40
2018-04-01T23:18:08.468Z,17.87
2018-04-01T23:20:35.915Z,18.87
2018-04-01T23:23:03.380Z,17.03
2018-04-01T23:25:30.848Z,17.17
2018-04-01T23:27:58.308Z,16.60
2018-04-01T23:30:25.755Z,15.97
2018-04-01T23:32:53.220Z,15.77
2018-04-01T23:35:20.665Z,14.23
2018-04-01T23:37:48.119Z,14.27
2018-04-01T23:40:15.567Z,15.37
2018-04-01T23:42:43.027Z,15.43
2018-04-01T23:45:10.479Z,16.20
2018-04-01T23:47:37.944Z,15.00
2018-04-01T23:50:05.400Z,17.20
2018-04-01T23:52:32.860Z,15.90
2018-04-01T23:55:00.315Z,16.67
2018-04-01T23:57:27.768Z,17.37
2018-04-01T23:59:55.222Z,17.13
